sensor_id;sensor_type;location;lat;lon;timestamp;temperature;humidity
45489;DHT22;31236;55.026;61.042;2023-08-07T00:00:59;18.10;94.90
45489;DHT22;31236;55.026;61.042;2023-08-07T00:03:29;18.10;94.90
45489;DHT22;31236;55.026;61.042;2023-08-07T00:05:59;18.20;95.00
45489;DHT22;31236;55.026;61.042;2023-08-07T00:08:29;18.20;95.00
45489;DHT22;31236;55.026;61.042;2023-08-07T00:14:07;18.20;95.10
45489;DHT22;31236;55.026;61.042;2023-08-07T00:16:37;18.20;95.10
45489;DHT22;31236;55.026;61.042;2023-08-07T00:19:07;18.10;95.20
45489;DHT22;31236;55.026;61.042;2023-08-07T00:21:37;18.10;95.30
45489;DHT22;31236;55.026;61.042;2023-08-07T00:24:07;18.10;95.30
45489;DHT22;31236;55.026;61.042;2023-08-07T00:26:37;18.20;95.40
45489;DHT22;31236;55.026;61.042;2023-08-07T00:29:07;18.20;95.40
45489;DHT22;31236;55.026;61.042;2023-08-07T00:31:36;18.20;95.40
45489;DHT22;31236;55.026;61.042;2023-08-07T00:34:06;18.10;95.40
45489;DHT22;31236;55.026;61.042;2023-08-07T00:36:36;18.20;95.50
45489;DHT22;31236;55.026;61.042;2023-08-07T00:39:06;18.20;95.50
45489;DHT22;31236;55.026;61.042;2023-08-07T00:41:36;18.20;95.50
45489;DHT22;31236;55.026;61.042;2023-08-07T00:44:06;18.20;95.50
45489;DHT22;31236;55.026;61.042;2023-08-07T00:46:36;18.20;95.60
45489;DHT22;31236;55.026;61.042;2023-08-07T00:49:25;18.20;95.60
45489;DHT22;31236;55.026;61.042;2023-08-07T00:51:56;18.20;95.60
45489;DHT22;31236;55.026;61.042;2023-08-07T00:54:26;18.20;95.60
45489;DHT22;31236;55.026;61.042;2023-08-07T00:56:59;18.20;95.70
45489;DHT22;31236;55.026;61.042;2023-08-07T00:59:30;18.20;95.80
45489;DHT22;31236;55.026;61.042;2023-08-07T01:02:01;18.20;95.80
45489;DHT22;31236;55.026;61.042;2023-08-07T01:04:31;18.20;95.80
45489;DHT22;31236;55.026;61.042;2023-08-07T01:07:01;18.20;95.80
45489;DHT22;31236;55.026;61.042;2023-08-07T01:09:31;18.20;95.90
45489;DHT22;31236;55.026;61.042;2023-08-07T01:15:32;18.30;95.90
45489;DHT22;31236;55.026;61.042;2023-08-07T01:18:03;18.30;95.70
45489;DHT22;31236;55.026;61.042;2023-08-07T01:20:34;18.30;95.80
45489;DHT22;31236;55.026;61.042;2023-08-07T01:23:04;18.40;95.80
45489;DHT22;31236;55.026;61.042;2023-08-07T01:25:35;18.40;95.80
45489;DHT22;31236;55.026;61.042;2023-08-07T01:31:15;18.40;95.80
45489;DHT22;31236;55.026;61.042;2023-08-07T01:34:05;18.40;95.80
45489;DHT22;31236;55.026;61.042;2023-08-07T01:36:39;18.40;95.90
45489;DHT22;31236;55.026;61.042;2023-08-07T01:39:09;18.40;95.90
45489;DHT22;31236;55.026;61.042;2023-08-07T01:41:41;18.40;96.00
45489;DHT22;31236;55.026;61.042;2023-08-07T01:44:12;18.40;96.00
45489;DHT22;31236;55.026;61.042;2023-08-07T01:46:41;18.40;96.00
45489;DHT22;31236;55.026;61.042;2023-08-07T01:49:11;18.30;96.10
45489;DHT22;31236;55.026;61.042;2023-08-07T01:51:41;18.40;96.10
45489;DHT22;31236;55.026;61.042;2023-08-07T01:54:11;18.40;96.20
45489;DHT22;31236;55.026;61.042;2023-08-07T01:56:40;18.40;96.20
45489;DHT22;31236;55.026;61.042;2023-08-07T01:59:10;18.40;96.20
45489;DHT22;31236;55.026;61.042;2023-08-07T02:01:40;18.40;96.30
45489;DHT22;31236;55.026;61.042;2023-08-07T02:04:10;18.50;96.30
45489;DHT22;31236;55.026;61.042;2023-08-07T02:06:40;18.50;96.20
45489;DHT22;31236;55.026;61.042;2023-08-07T02:09:10;18.50;96.20
45489;DHT22;31236;55.026;61.042;2023-08-07T02:11:40;18.50;96.20
45489;DHT22;31236;55.026;61.042;2023-08-07T02:14:10;18.50;96.30
45489;DHT22;31236;55.026;61.042;2023-08-07T02:16:39;18.50;96.40
45489;DHT22;31236;55.026;61.042;2023-08-07T02:19:10;18.50;96.40
45489;DHT22;31236;55.026;61.042;2023-08-07T02:21:40;18.50;96.40
45489;DHT22;31236;55.026;61.042;2023-08-07T02:24:10;18.50;96.40
45489;DHT22;31236;55.026;61.042;2023-08-07T02:26:40;18.50;96.40
45489;DHT22;31236;55.026;61.042;2023-08-07T02:29:10;18.50;96.40
45489;DHT22;31236;55.026;61.042;2023-08-07T02:31:40;18.50;96.40
45489;DHT22;31236;55.026;61.042;2023-08-07T02:34:10;18.50;96.40
45489;DHT22;31236;55.026;61.042;2023-08-07T02:36:40;18.50;96.40
45489;DHT22;31236;55.026;61.042;2023-08-07T02:39:09;18.50;96.50
45489;DHT22;31236;55.026;61.042;2023-08-07T02:41:39;18.50;96.50
45489;DHT22;31236;55.026;61.042;2023-08-07T02:44:09;18.50;96.50
45489;DHT22;31236;55.026;61.042;2023-08-07T02:46:38;18.60;96.60
45489;DHT22;31236;55.026;61.042;2023-08-07T02:49:08;18.60;96.50
45489;DHT22;31236;55.026;61.042;2023-08-07T02:51:38;18.60;96.50
45489;DHT22;31236;55.026;61.042;2023-08-07T02:54:08;18.60;96.50
45489;DHT22;31236;55.026;61.042;2023-08-07T02:56:38;18.70;96.50
45489;DHT22;31236;55.026;61.042;2023-08-07T02:59:08;18.70;96.60
45489;DHT22;31236;55.026;61.042;2023-08-07T03:01:38;18.70;96.50
45489;DHT22;31236;55.026;61.042;2023-08-07T03:04:08;18.70;96.60
45489;DHT22;31236;55.026;61.042;2023-08-07T03:06:37;18.70;96.60
45489;DHT22;31236;55.026;61.042;2023-08-07T03:09:07;18.70;96.70
45489;DHT22;31236;55.026;61.042;2023-08-07T03:11:37;18.70;96.70
45489;DHT22;31236;55.026;61.042;2023-08-07T03:14:08;18.70;96.70
45489;DHT22;31236;55.026;61.042;2023-08-07T03:16:37;18.70;96.70
45489;DHT22;31236;55.026;61.042;2023-08-07T03:19:07;18.70;96.70
45489;DHT22;31236;55.026;61.042;2023-08-07T03:21:38;18.70;96.70
45489;DHT22;31236;55.026;61.042;2023-08-07T03:24:08;18.60;96.80
45489;DHT22;31236;55.026;61.042;2023-08-07T03:26:38;18.70;96.70
45489;DHT22;31236;55.026;61.042;2023-08-07T03:29:08;18.70;96.80
45489;DHT22;31236;55.026;61.042;2023-08-07T03:31:38;18.70;96.80
45489;DHT22;31236;55.026;61.042;2023-08-07T03:34:07;18.70;96.80
45489;DHT22;31236;55.026;61.042;2023-08-07T03:36:37;18.70;96.80
45489;DHT22;31236;55.026;61.042;2023-08-07T03:39:07;18.70;96.80
45489;DHT22;31236;55.026;61.042;2023-08-07T03:41:38;18.70;96.90
45489;DHT22;31236;55.026;61.042;2023-08-07T03:44:08;18.60;96.90
45489;DHT22;31236;55.026;61.042;2023-08-07T03:46:38;18.70;97.00
45489;DHT22;31236;55.026;61.042;2023-08-07T03:49:08;18.70;96.90
45489;DHT22;31236;55.026;61.042;2023-08-07T03:51:38;18.70;96.80
45489;DHT22;31236;55.026;61.042;2023-08-07T03:54:07;18.80;96.90
45489;DHT22;31236;55.026;61.042;2023-08-07T03:56:37;18.80;96.80
45489;DHT22;31236;55.026;61.042;2023-08-07T03:59:07;18.90;96.80
45489;DHT22;31236;55.026;61.042;2023-08-07T04:01:38;18.90;96.80
45489;DHT22;31236;55.026;61.042;2023-08-07T04:04:09;19.00;96.80
45489;DHT22;31236;55.026;61.042;2023-08-07T04:06:38;19.10;96.70
45489;DHT22;31236;55.026;61.042;2023-08-07T04:09:10;19.10;96.70
45489;DHT22;31236;55.026;61.042;2023-08-07T04:11:40;19.20;96.70
45489;DHT22;31236;55.026;61.042;2023-08-07T04:14:10;19.20;96.70
45489;DHT22;31236;55.026;61.042;2023-08-07T04:16:40;19.30;96.60
45489;DHT22;31236;55.026;61.042;2023-08-07T04:19:10;19.30;96.50
45489;DHT22;31236;55.026;61.042;2023-08-07T04:21:39;19.30;96.60
45489;DHT22;31236;55.026;61.042;2023-08-07T04:24:09;19.30;96.60
45489;DHT22;31236;55.026;61.042;2023-08-07T04:26:39;19.30;96.60
45489;DHT22;31236;55.026;61.042;2023-08-07T04:29:09;19.20;96.70
45489;DHT22;31236;55.026;61.042;2023-08-07T04:31:39;19.30;96.70
45489;DHT22;31236;55.026;61.042;2023-08-07T04:34:08;19.30;96.60
45489;DHT22;31236;55.026;61.042;2023-08-07T04:36:39;19.30;96.60
45489;DHT22;31236;55.026;61.042;2023-08-07T04:39:09;19.40;96.50
45489;DHT22;31236;55.026;61.042;2023-08-07T04:41:40;19.40;96.50
45489;DHT22;31236;55.026;61.042;2023-08-07T04:44:10;19.50;96.50
45489;DHT22;31236;55.026;61.042;2023-08-07T04:46:40;19.50;96.40
45489;DHT22;31236;55.026;61.042;2023-08-07T04:49:09;19.60;96.40
45489;DHT22;31236;55.026;61.042;2023-08-07T04:51:40;19.70;96.40
45489;DHT22;31236;55.026;61.042;2023-08-07T04:54:09;19.80;96.30
45489;DHT22;31236;55.026;61.042;2023-08-07T04:56:39;19.80;96.30
45489;DHT22;31236;55.026;61.042;2023-08-07T04:59:11;19.80;96.20
45489;DHT22;31236;55.026;61.042;2023-08-07T05:01:41;19.80;96.30
45489;DHT22;31236;55.026;61.042;2023-08-07T05:04:10;19.90;96.30
45489;DHT22;31236;55.026;61.042;2023-08-07T05:06:40;19.90;96.30
45489;DHT22;31236;55.026;61.042;2023-08-07T05:09:10;20.00;96.20
45489;DHT22;31236;55.026;61.042;2023-08-07T05:11:39;20.00;96.20
45489;DHT22;31236;55.026;61.042;2023-08-07T05:14:09;20.00;96.10
45489;DHT22;31236;55.026;61.042;2023-08-07T05:16:39;19.90;96.10
45489;DHT22;31236;55.026;61.042;2023-08-07T05:19:09;19.90;96.20
45489;DHT22;31236;55.026;61.042;2023-08-07T05:21:39;19.90;96.20
45489;DHT22;31236;55.026;61.042;2023-08-07T05:24:08;19.90;96.10
45489;DHT22;31236;55.026;61.042;2023-08-07T05:26:39;19.90;96.20
45489;DHT22;31236;55.026;61.042;2023-08-07T05:29:09;19.80;96.20
45489;DHT22;31236;55.026;61.042;2023-08-07T05:31:39;19.90;96.10
45489;DHT22;31236;55.026;61.042;2023-08-07T05:34:09;19.90;96.10
45489;DHT22;31236;55.026;61.042;2023-08-07T05:36:38;19.90;96.00
45489;DHT22;31236;55.026;61.042;2023-08-07T05:39:08;20.00;96.00
45489;DHT22;31236;55.026;61.042;2023-08-07T05:41:38;20.00;96.00
45489;DHT22;31236;55.026;61.042;2023-08-07T05:44:08;20.00;95.90
45489;DHT22;31236;55.026;61.042;2023-08-07T05:46:37;20.00;95.90
45489;DHT22;31236;55.026;61.042;2023-08-07T05:49:07;20.00;95.90
45489;DHT22;31236;55.026;61.042;2023-08-07T05:51:37;20.00;95.90
45489;DHT22;31236;55.026;61.042;2023-08-07T05:54:07;20.00;96.00
45489;DHT22;31236;55.026;61.042;2023-08-07T05:56:38;19.90;96.00
45489;DHT22;31236;55.026;61.042;2023-08-07T05:59:08;20.00;96.00
45489;DHT22;31236;55.026;61.042;2023-08-07T06:01:38;20.00;96.00
45489;DHT22;31236;55.026;61.042;2023-08-07T06:04:08;20.00;96.00
45489;DHT22;31236;55.026;61.042;2023-08-07T06:06:38;20.00;95.90
45489;DHT22;31236;55.026;61.042;2023-08-07T06:09:09;20.10;95.90
45489;DHT22;31236;55.026;61.042;2023-08-07T06:11:39;20.10;95.90
45489;DHT22;31236;55.026;61.042;2023-08-07T06:14:09;20.20;95.80
45489;DHT22;31236;55.026;61.042;2023-08-07T06:16:39;20.20;95.80
45489;DHT22;31236;55.026;61.042;2023-08-07T06:19:08;20.30;95.80
45489;DHT22;31236;55.026;61.042;2023-08-07T06:21:38;20.20;95.80
45489;DHT22;31236;55.026;61.042;2023-08-07T06:24:09;20.20;95.70
45489;DHT22;31236;55.026;61.042;2023-08-07T06:26:39;20.20;95.80
45489;DHT22;31236;55.026;61.042;2023-08-07T06:29:09;20.20;95.80
45489;DHT22;31236;55.026;61.042;2023-08-07T06:31:40;20.20;95.80
45489;DHT22;31236;55.026;61.042;2023-08-07T06:34:09;20.30;95.80
45489;DHT22;31236;55.026;61.042;2023-08-07T06:36:39;20.40;95.70
45489;DHT22;31236;55.026;61.042;2023-08-07T06:39:09;20.50;95.60
45489;DHT22;31236;55.026;61.042;2023-08-07T06:41:39;20.50;95.50
45489;DHT22;31236;55.026;61.042;2023-08-07T06:44:09;20.50;95.60
45489;DHT22;31236;55.026;61.042;2023-08-07T06:46:38;20.50;95.50
45489;DHT22;31236;55.026;61.042;2023-08-07T06:49:08;20.50;95.50
45489;DHT22;31236;55.026;61.042;2023-08-07T06:51:40;20.60;95.60
45489;DHT22;31236;55.026;61.042;2023-08-07T06:54:09;20.60;95.60
45489;DHT22;31236;55.026;61.042;2023-08-07T06:56:39;20.70;95.50
45489;DHT22;31236;55.026;61.042;2023-08-07T06:59:11;20.70;95.40
45489;DHT22;31236;55.026;61.042;2023-08-07T07:01:41;20.70;95.40
45489;DHT22;31236;55.026;61.042;2023-08-07T07:04:11;20.70;95.40
45489;DHT22;31236;55.026;61.042;2023-08-07T07:06:41;20.70;95.40
45489;DHT22;31236;55.026;61.042;2023-08-07T07:09:11;20.70;95.30
45489;DHT22;31236;55.026;61.042;2023-08-07T07:11:43;20.70;95.30
45489;DHT22;31236;55.026;61.042;2023-08-07T07:14:13;20.70;95.40
45489;DHT22;31236;55.026;61.042;2023-08-07T07:16:43;20.70;95.40
45489;DHT22;31236;55.026;61.042;2023-08-07T07:19:12;20.70;95.40
45489;DHT22;31236;55.026;61.042;2023-08-07T07:21:43;20.70;95.30
45489;DHT22;31236;55.026;61.042;2023-08-07T07:24:13;20.70;95.30
45489;DHT22;31236;55.026;61.042;2023-08-07T07:26:43;20.80;95.30
45489;DHT22;31236;55.026;61.042;2023-08-07T07:29:13;20.90;95.30
45489;DHT22;31236;55.026;61.042;2023-08-07T07:31:42;21.00;95.20
45489;DHT22;31236;55.026;61.042;2023-08-07T07:34:13;20.90;95.10
45489;DHT22;31236;55.026;61.042;2023-08-07T07:36:43;20.90;95.10
45489;DHT22;31236;55.026;61.042;2023-08-07T07:39:13;21.00;95.20
45489;DHT22;31236;55.026;61.042;2023-08-07T07:41:43;21.10;95.20
45489;DHT22;31236;55.026;61.042;2023-08-07T07:44:12;21.20;95.10
45489;DHT22;31236;55.026;61.042;2023-08-07T07:46:42;21.20;95.10
45489;DHT22;31236;55.026;61.042;2023-08-07T07:49:12;21.40;95.10
45489;DHT22;31236;55.026;61.042;2023-08-07T07:51:42;21.50;95.00
45489;DHT22;31236;55.026;61.042;2023-08-07T07:54:13;21.60;94.90
45489;DHT22;31236;55.026;61.042;2023-08-07T07:56:43;21.70;94.90
45489;DHT22;31236;55.026;61.042;2023-08-07T07:59:13;21.80;94.80
45489;DHT22;31236;55.026;61.042;2023-08-07T08:01:43;21.80;94.70
45489;DHT22;31236;55.026;61.042;2023-08-07T08:04:13;21.90;94.70
45489;DHT22;31236;55.026;61.042;2023-08-07T08:06:43;21.90;94.70
45489;DHT22;31236;55.026;61.042;2023-08-07T08:09:14;21.90;94.60
45489;DHT22;31236;55.026;61.042;2023-08-07T08:11:44;21.80;94.60
45489;DHT22;31236;55.026;61.042;2023-08-07T08:14:14;21.80;94.60
45489;DHT22;31236;55.026;61.042;2023-08-07T08:16:44;21.80;94.60
45489;DHT22;31236;55.026;61.042;2023-08-07T08:19:13;21.90;94.60
45489;DHT22;31236;55.026;61.042;2023-08-07T08:21:43;22.10;94.60
45489;DHT22;31236;55.026;61.042;2023-08-07T08:24:13;22.20;94.50
45489;DHT22;31236;55.026;61.042;2023-08-07T08:26:43;22.30;94.40
45489;DHT22;31236;55.026;61.042;2023-08-07T08:29:14;22.30;94.40
45489;DHT22;31236;55.026;61.042;2023-08-07T08:31:44;22.30;94.40
45489;DHT22;31236;55.026;61.042;2023-08-07T08:34:14;22.30;94.40
45489;DHT22;31236;55.026;61.042;2023-08-07T08:36:44;22.30;94.40
45489;DHT22;31236;55.026;61.042;2023-08-07T08:39:13;22.20;94.40
45489;DHT22;31236;55.026;61.042;2023-08-07T08:44:35;22.20;94.40
45489;DHT22;31236;55.026;61.042;2023-08-07T08:47:07;22.20;94.40
45489;DHT22;31236;55.026;61.042;2023-08-07T08:49:40;22.30;94.30
45489;DHT22;31236;55.026;61.042;2023-08-07T08:52:08;22.20;94.20
45489;DHT22;31236;55.026;61.042;2023-08-07T08:57:29;22.10;94.20
45489;DHT22;31236;55.026;61.042;2023-08-07T09:00:00;22.20;94.20
45489;DHT22;31236;55.026;61.042;2023-08-07T09:02:34;22.20;94.20
45489;DHT22;31236;55.026;61.042;2023-08-07T09:05:05;22.20;94.10
45489;DHT22;31236;55.026;61.042;2023-08-07T09:07:38;22.30;94.10
45489;DHT22;31236;55.026;61.042;2023-08-07T09:10:09;22.30;94.10
45489;DHT22;31236;55.026;61.042;2023-08-07T09:12:41;22.40;94.10
45489;DHT22;31236;55.026;61.042;2023-08-07T09:15:11;22.30;94.00
45489;DHT22;31236;55.026;61.042;2023-08-07T09:17:44;22.40;93.90
45489;DHT22;31236;55.026;61.042;2023-08-07T09:20:14;22.40;93.80
45489;DHT22;31236;55.026;61.042;2023-08-07T09:22:44;22.50;93.80
45489;DHT22;31236;55.026;61.042;2023-08-07T09:25:15;22.60;93.60
45489;DHT22;31236;55.026;61.042;2023-08-07T09:27:47;22.90;93.50
45489;DHT22;31236;55.026;61.042;2023-08-07T09:30:17;23.20;93.30
45489;DHT22;31236;55.026;61.042;2023-08-07T09:32:48;23.30;93.20
45489;DHT22;31236;55.026;61.042;2023-08-07T09:38:08;23.30;93.10
45489;DHT22;31236;55.026;61.042;2023-08-07T09:40:38;23.30;93.00
45489;DHT22;31236;55.026;61.042;2023-08-07T09:43:09;23.40;93.00
45489;DHT22;31236;55.026;61.042;2023-08-07T09:45:40;23.40;92.90
45489;DHT22;31236;55.026;61.042;2023-08-07T09:48:10;23.40;92.90
45489;DHT22;31236;55.026;61.042;2023-08-07T09:50:40;23.40;92.90
45489;DHT22;31236;55.026;61.042;2023-08-07T09:53:09;23.40;92.80
45489;DHT22;31236;55.026;61.042;2023-08-07T09:55:39;23.40;92.80
45489;DHT22;31236;55.026;61.042;2023-08-07T09:58:11;23.40;92.70
45489;DHT22;31236;55.026;61.042;2023-08-07T10:00:41;23.40;92.60
45489;DHT22;31236;55.026;61.042;2023-08-07T10:03:11;23.40;92.60
45489;DHT22;31236;55.026;61.042;2023-08-07T10:05:44;23.40;92.70
45489;DHT22;31236;55.026;61.042;2023-08-07T10:08:14;23.30;92.70
45489;DHT22;31236;55.026;61.042;2023-08-07T10:10:45;23.20;92.70
45489;DHT22;31236;55.026;61.042;2023-08-07T10:13:15;23.20;92.70
45489;DHT22;31236;55.026;61.042;2023-08-07T10:15:46;23.20;92.70
45489;DHT22;31236;55.026;61.042;2023-08-07T10:18:16;23.20;92.70
45489;DHT22;31236;55.026;61.042;2023-08-07T10:20:48;23.20;92.70
45489;DHT22;31236;55.026;61.042;2023-08-07T10:23:19;23.20;92.60
45489;DHT22;31236;55.026;61.042;2023-08-07T10:25:51;23.20;92.60
45489;DHT22;31236;55.026;61.042;2023-08-07T10:28:22;23.10;92.60
45489;DHT22;31236;55.026;61.042;2023-08-07T10:30:52;23.00;92.60
45489;DHT22;31236;55.026;61.042;2023-08-07T10:33:22;23.00;92.60
45489;DHT22;31236;55.026;61.042;2023-08-07T10:35:53;23.00;92.60
45489;DHT22;31236;55.026;61.042;2023-08-07T10:38:23;23.00;92.60
45489;DHT22;31236;55.026;61.042;2023-08-07T10:41:13;23.00;92.60
45489;DHT22;31236;55.026;61.042;2023-08-07T10:43:44;22.80;92.60
45489;DHT22;31236;55.026;61.042;2023-08-07T10:47:08;22.80;92.60
45489;DHT22;31236;55.026;61.042;2023-08-07T10:49:06;22.80;92.60
45489;DHT22;31236;55.026;61.042;2023-08-07T10:51:36;22.80;92.60
45489;DHT22;31236;55.026;61.042;2023-08-07T10:54:06;22.90;92.60
45489;DHT22;31236;55.026;61.042;2023-08-07T10:56:36;22.90;92.60
45489;DHT22;31236;55.026;61.042;2023-08-07T10:59:38;22.90;92.60
45489;DHT22;31236;55.026;61.042;2023-08-07T11:01:41;22.90;92.60
45489;DHT22;31236;55.026;61.042;2023-08-07T11:04:30;23.00;92.50
45489;DHT22;31236;55.026;61.042;2023-08-07T11:07:00;23.00;92.50
45489;DHT22;31236;55.026;61.042;2023-08-07T11:09:31;22.80;92.50
45489;DHT22;31236;55.026;61.042;2023-08-07T11:12:03;22.80;92.50
45489;DHT22;31236;55.026;61.042;2023-08-07T11:14:34;22.80;92.60
45489;DHT22;31236;55.026;61.042;2023-08-07T11:17:04;22.90;92.50
45489;DHT22;31236;55.026;61.042;2023-08-07T11:19:34;23.00;92.50
45489;DHT22;31236;55.026;61.042;2023-08-07T11:22:05;23.20;92.30
45489;DHT22;31236;55.026;61.042;2023-08-07T11:24:35;23.30;92.20
45489;DHT22;31236;55.026;61.042;2023-08-07T11:27:05;23.50;92.10
45489;DHT22;31236;55.026;61.042;2023-08-07T11:29:36;23.50;92.00
45489;DHT22;31236;55.026;61.042;2023-08-07T11:32:06;23.70;91.90
45489;DHT22;31236;55.026;61.042;2023-08-07T11:34:37;23.90;91.80
45489;DHT22;31236;55.026;61.042;2023-08-07T11:37:07;24.10;91.70
45489;DHT22;31236;55.026;61.042;2023-08-07T11:40:32;24.30;91.50
45489;DHT22;31236;55.026;61.042;2023-08-07T11:42:31;24.30;91.50
45489;DHT22;31236;55.026;61.042;2023-08-07T11:45:02;24.30;91.40
45489;DHT22;31236;55.026;61.042;2023-08-07T11:47:33;24.40;91.30
45489;DHT22;31236;55.026;61.042;2023-08-07T11:50:03;24.60;91.30
45489;DHT22;31236;55.026;61.042;2023-08-07T11:52:33;24.80;91.10
45489;DHT22;31236;55.026;61.042;2023-08-07T11:55:03;24.80;90.90
45489;DHT22;31236;55.026;61.042;2023-08-07T11:57:38;24.90;90.90
45489;DHT22;31236;55.026;61.042;2023-08-07T12:00:10;25.00;90.80
45489;DHT22;31236;55.026;61.042;2023-08-07T12:03:00;25.10;90.70
45489;DHT22;31236;55.026;61.042;2023-08-07T12:05:38;25.10;90.50
45489;DHT22;31236;55.026;61.042;2023-08-07T12:08:02;25.30;90.40
45489;DHT22;31236;55.026;61.042;2023-08-07T12:10:32;25.40;90.30
45489;DHT22;31236;55.026;61.042;2023-08-07T12:13:02;25.40;90.10
45489;DHT22;31236;55.026;61.042;2023-08-07T12:15:32;25.40;90.00
45489;DHT22;31236;55.026;61.042;2023-08-07T12:18:02;25.30;90.00
45489;DHT22;31236;55.026;61.042;2023-08-07T12:20:32;25.10;90.00
45489;DHT22;31236;55.026;61.042;2023-08-07T12:23:02;25.10;90.00
45489;DHT22;31236;55.026;61.042;2023-08-07T12:25:31;25.20;90.00
45489;DHT22;31236;55.026;61.042;2023-08-07T12:28:01;25.10;89.90
45489;DHT22;31236;55.026;61.042;2023-08-07T12:33:22;24.80;90.10
45489;DHT22;31236;55.026;61.042;2023-08-07T12:35:52;24.70;90.20
45489;DHT22;31236;55.026;61.042;2023-08-07T12:38:22;24.60;90.20
45489;DHT22;31236;55.026;61.042;2023-08-07T12:40:52;24.60;90.20
45489;DHT22;31236;55.026;61.042;2023-08-07T12:43:22;24.60;90.20
45489;DHT22;31236;55.026;61.042;2023-08-07T12:45:52;24.50;90.20
45489;DHT22;31236;55.026;61.042;2023-08-07T12:48:22;24.60;90.20
45489;DHT22;31236;55.026;61.042;2023-08-07T12:50:53;24.70;90.10
45489;DHT22;31236;55.026;61.042;2023-08-07T12:53:23;24.60;90.20
45489;DHT22;31236;55.026;61.042;2023-08-07T12:55:53;24.60;90.20
45489;DHT22;31236;55.026;61.042;2023-08-07T12:58:23;24.70;90.20
45489;DHT22;31236;55.026;61.042;2023-08-07T13:00:55;24.60;90.20
45489;DHT22;31236;55.026;61.042;2023-08-07T13:03:25;24.60;90.20
45489;DHT22;31236;55.026;61.042;2023-08-07T13:05:55;24.50;90.30
45489;DHT22;31236;55.026;61.042;2023-08-07T13:08:25;24.30;90.30
45489;DHT22;31236;55.026;61.042;2023-08-07T13:10:54;24.10;90.40
45489;DHT22;31236;55.026;61.042;2023-08-07T13:13:24;23.90;90.50
45489;DHT22;31236;55.026;61.042;2023-08-07T13:15:55;23.50;90.40
45489;DHT22;31236;55.026;61.042;2023-08-07T13:18:25;23.00;90.50
45489;DHT22;31236;55.026;61.042;2023-08-07T13:20:55;22.50;90.80
45489;DHT22;31236;55.026;61.042;2023-08-07T13:23:26;22.10;91.00
45489;DHT22;31236;55.026;61.042;2023-08-07T13:25:56;21.80;91.30
45489;DHT22;31236;55.026;61.042;2023-08-07T13:28:26;21.70;91.40
45489;DHT22;31236;55.026;61.042;2023-08-07T13:30:56;21.60;91.30
45489;DHT22;31236;55.026;61.042;2023-08-07T13:33:26;21.60;91.20
45489;DHT22;31236;55.026;61.042;2023-08-07T13:35:57;21.70;91.20
45489;DHT22;31236;55.026;61.042;2023-08-07T13:38:27;21.60;91.30
45489;DHT22;31236;55.026;61.042;2023-08-07T13:40:58;21.60;91.40
45489;DHT22;31236;55.026;61.042;2023-08-07T13:43:28;21.60;91.30
45489;DHT22;31236;55.026;61.042;2023-08-07T13:45:57;21.60;91.30
45489;DHT22;31236;55.026;61.042;2023-08-07T13:48:27;21.70;91.40
45489;DHT22;31236;55.026;61.042;2023-08-07T13:50:57;21.60;91.30
45489;DHT22;31236;55.026;61.042;2023-08-07T13:53:29;21.60;91.30
45489;DHT22;31236;55.026;61.042;2023-08-07T13:55:59;21.50;91.30
45489;DHT22;31236;55.026;61.042;2023-08-07T13:58:29;21.50;91.50
45489;DHT22;31236;55.026;61.042;2023-08-07T14:00:59;21.40;91.60
45489;DHT22;31236;55.026;61.042;2023-08-07T14:03:32;21.50;91.60
45489;DHT22;31236;55.026;61.042;2023-08-07T14:06:02;21.50;91.60
45489;DHT22;31236;55.026;61.042;2023-08-07T14:08:32;21.50;91.80
45489;DHT22;31236;55.026;61.042;2023-08-07T14:11:02;21.40;91.90
45489;DHT22;31236;55.026;61.042;2023-08-07T14:13:33;21.50;92.00
45489;DHT22;31236;55.026;61.042;2023-08-07T14:16:04;21.50;92.00
45489;DHT22;31236;55.026;61.042;2023-08-07T14:18:35;21.50;92.00
45489;DHT22;31236;55.026;61.042;2023-08-07T14:21:05;21.50;92.00
45489;DHT22;31236;55.026;61.042;2023-08-07T14:23:36;21.50;92.00
45489;DHT22;31236;55.026;61.042;2023-08-07T14:26:07;21.50;92.00
45489;DHT22;31236;55.026;61.042;2023-08-07T14:28:37;21.60;92.10
45489;DHT22;31236;55.026;61.042;2023-08-07T14:31:08;21.50;92.00
45489;DHT22;31236;55.026;61.042;2023-08-07T14:33:38;21.50;92.10
45489;DHT22;31236;55.026;61.042;2023-08-07T14:36:08;21.50;92.10
45489;DHT22;31236;55.026;61.042;2023-08-07T14:38:39;21.50;92.20
45489;DHT22;31236;55.026;61.042;2023-08-07T14:41:09;21.40;92.20
45489;DHT22;31236;55.026;61.042;2023-08-07T14:43:39;21.40;92.20
45489;DHT22;31236;55.026;61.042;2023-08-07T14:46:09;21.40;92.20
45489;DHT22;31236;55.026;61.042;2023-08-07T14:48:40;21.40;92.30
45489;DHT22;31236;55.026;61.042;2023-08-07T14:51:10;21.40;92.40
45489;DHT22;31236;55.026;61.042;2023-08-07T14:53:40;21.30;92.40
45489;DHT22;31236;55.026;61.042;2023-08-07T14:56:10;21.30;92.50
45489;DHT22;31236;55.026;61.042;2023-08-07T14:58:41;21.30;92.50
45489;DHT22;31236;55.026;61.042;2023-08-07T15:01:11;21.20;92.50
45489;DHT22;31236;55.026;61.042;2023-08-07T15:03:42;21.20;92.60
45489;DHT22;31236;55.026;61.042;2023-08-07T15:06:12;21.20;92.70
45489;DHT22;31236;55.026;61.042;2023-08-07T15:08:43;21.20;92.70
45489;DHT22;31236;55.026;61.042;2023-08-07T15:11:13;21.10;92.70
45489;DHT22;31236;55.026;61.042;2023-08-07T15:13:43;21.10;92.70
45489;DHT22;31236;55.026;61.042;2023-08-07T15:16:14;21.00;92.70
45489;DHT22;31236;55.026;61.042;2023-08-07T15:18:44;20.90;92.90
45489;DHT22;31236;55.026;61.042;2023-08-07T15:21:14;20.80;93.00
45489;DHT22;31236;55.026;61.042;2023-08-07T15:23:45;20.70;93.00
45489;DHT22;31236;55.026;61.042;2023-08-07T15:26:15;20.60;93.10
45489;DHT22;31236;55.026;61.042;2023-08-07T15:28:45;20.50;93.10
45489;DHT22;31236;55.026;61.042;2023-08-07T15:31:15;20.40;93.30
45489;DHT22;31236;55.026;61.042;2023-08-07T15:33:45;20.30;93.50
45489;DHT22;31236;55.026;61.042;2023-08-07T15:36:17;20.20;93.60
45489;DHT22;31236;55.026;61.042;2023-08-07T15:42:17;20.20;93.70
45489;DHT22;31236;55.026;61.042;2023-08-07T15:44:48;20.10;93.70
45489;DHT22;31236;55.026;61.042;2023-08-07T15:47:18;20.10;93.80
45489;DHT22;31236;55.026;61.042;2023-08-07T15:49:49;20.20;93.90
45489;DHT22;31236;55.026;61.042;2023-08-07T15:52:18;20.20;93.90
45489;DHT22;31236;55.026;61.042;2023-08-07T15:54:49;20.20;93.90
45489;DHT22;31236;55.026;61.042;2023-08-07T15:57:19;20.20;93.90
45489;DHT22;31236;55.026;61.042;2023-08-07T15:59:50;20.20;94.00